Time;durP1;ratioP1;P1;durP2;ratioP2;P2;SDS_P1;SDS_P2;PMS_P1;PMS_P2;Temp;Humidity;BMP_temperature;BMP_pressure;BME280_temperature;BME280_humidity;BME280_pressure;Samples;Min_cycle;Max_cycle;Signal;HPM_P1;HPM_P2
2023/07/11 00:02:12;;;;;;;7.95;2.78;;;;;;;-144.47;63.57;52591.94;5036438;28;20041;-71
2023/07/11 00:04:38;;;;;;;9.95;2.55;;;;;;;-144.47;63.38;52566.13;5030480;28;20048;-71
2023/07/11 00:07:03;;;;;;;7.60;3.03;;;;;;;-144.47;63.66;52609.81;5029806;28;20179;-70
2023/07/11 00:09:28;;;;;;;6.72;3.33;;;;;;;-144.47;63.60;52568.13;5025035;28;20453;-71
2023/07/11 00:11:54;;;;;;;14.38;2.90;;;;;;;-144.47;64.30;52601.88;5024685;28;20017;-70
2023/07/11 00:14:20;;;;;;;7.78;3.00;;;;;;;-144.47;64.79;52591.94;5028759;28;20021;-70
2023/07/11 00:16:45;;;;;;;11.45;2.97;;;;;;;-144.47;64.75;52578.03;5029731;28;20664;-69
2023/07/11 00:19:11;;;;;;;4.70;2.50;;;;;;;-144.47;65.00;52578.03;5030475;28;20017;-71
2023/07/11 00:21:37;;;;;;;7.38;3.47;;;;;;;-144.47;64.96;52595.91;5029448;28;20041;-71
2023/07/11 00:24:03;;;;;;;6.93;2.50;;;;;;;-144.47;65.22;52603.84;5028770;28;20033;-71
2023/07/11 00:26:34;;;;;;;8.73;2.88;;;;;;;-144.47;65.31;52597.91;5030147;28;20055;-71
2023/07/11 00:29:20;;;;;;;7.53;2.83;;;;;;;-144.47;65.85;52578.03;5011918;28;20036;-72
2023/07/11 00:31:46;;;;;;;6.22;2.60;;;;;;;-144.47;66.04;52589.97;5029759;28;20158;-69
2023/07/11 00:34:11;;;;;;;12.88;2.63;;;;;;;-144.47;66.21;52603.84;5011329;28;20021;-71
2023/07/11 00:36:36;;;;;;;5.85;2.60;;;;;;;-144.47;65.92;52605.84;5027862;28;20057;-70
2023/07/11 00:39:04;;;;;;;6.32;2.60;;;;;;;-144.47;65.98;52587.97;5029526;28;20137;-71
2023/07/11 00:41:30;;;;;;;8.60;2.95;;;;;;;-144.47;66.32;52591.94;5030127;28;20025;-71
2023/07/11 00:43:55;;;;;;;7.28;2.28;;;;;;;-144.47;66.70;52584.00;5029063;28;20033;-69
2023/07/11 00:46:20;;;;;;;7.93;3.10;;;;;;;-144.47;67.08;52564.13;5029234;28;20025;-70
2023/07/11 00:48:58;;;;;;;5.28;2.30;;;;;;;-144.47;66.90;52597.91;5029694;28;20391;-69
2023/07/11 00:51:32;;;;;;;5.55;2.42;;;;;;;-144.47;66.71;52576.06;5029002;28;20235;-71
2023/07/11 00:53:59;;;;;;;8.25;2.95;;;;;;;-144.47;67.20;52576.06;5010558;28;20404;-69
2023/07/11 00:56:29;;;;;;;8.80;2.20;;;;;;;-144.47;67.28;52599.88;5028260;28;20147;-71
2023/07/11 00:58:56;;;;;;;12.52;3.92;;;;;;;-144.47;67.55;52593.94;5029153;28;20045;-70
2023/07/11 01:01:23;;;;;;;8.73;2.80;;;;;;;-144.47;67.90;52582.00;5028771;28;20101;-72
2023/07/11 01:03:51;;;;;;;5.82;2.42;;;;;;;-144.47;67.54;52585.97;5028902;28;20467;-69
2023/07/11 01:06:20;;;;;;;9.30;2.88;;;;;;;-144.47;67.63;52582.00;5028692;28;20087;-72
2023/07/11 01:08:48;;;;;;;7.60;2.80;;;;;;;-144.47;68.65;52574.06;5010763;28;20071;-71
2023/07/11 01:11:14;;;;;;;6.10;2.78;;;;;;;-144.47;69.02;52582.00;5028991;28;20017;-69
2023/07/11 01:13:39;;;;;;;6.75;2.97;;;;;;;-144.47;69.14;52564.13;5027464;28;20212;-70
2023/07/11 01:16:05;;;;;;;6.95;2.88;;;;;;;-144.47;69.18;52585.97;5022812;28;20092;-70
2023/07/11 01:18:31;;;;;;;7.40;2.50;;;;;;;-144.47;69.26;52599.88;5029295;28;20029;-70
2023/07/11 01:20:57;;;;;;;9.95;2.47;;;;;;;-144.47;69.17;52597.91;5028874;28;20021;-71
2023/07/11 01:23:22;;;;;;;9.70;3.35;;;;;;;-144.47;69.35;52585.97;5028579;28;20500;-71
2023/07/11 01:25:48;;;;;;;7.13;2.50;;;;;;;-144.47;69.50;52589.97;5028282;28;20241;-70
2023/07/11 01:28:14;;;;;;;6.22;2.88;;;;;;;-144.47;69.86;52607.84;5029156;28;20108;-71
2023/07/11 01:30:39;;;;;;;8.32;2.20;;;;;;;-144.47;70.10;52580.03;5028532;28;20029;-70
2023/07/11 01:33:05;;;;;;;7.75;2.40;;;;;;;-144.47;70.43;52580.03;5028042;28;20025;-72
2023/07/11 01:35:30;;;;;;;5.70;2.47;;;;;;;-144.47;71.05;52587.97;5027690;28;20475;-71
2023/07/11 01:37:56;;;;;;;5.35;2.55;;;;;;;-144.47;71.33;52641.59;5029047;28;20072;-70
2023/07/11 01:40:21;;;;;;;7.90;2.83;;;;;;;-144.47;71.73;52584.00;5028224;28;20356;-71
2023/07/11 01:42:48;;;;;;;10.57;3.28;;;;;;;-144.47;71.94;52572.09;5028099;28;20022;-70
2023/07/11 01:45:14;;;;;;;7.30;3.25;;;;;;;-144.47;72.31;52582.00;5027201;28;20083;-70
2023/07/11 01:47:39;;;;;;;12.38;4.32;;;;;;;-144.47;71.88;52580.03;5029168;28;20037;-68
2023/07/11 01:50:05;;;;;;;7.45;3.10;;;;;;;-144.47;72.28;52591.94;5028351;28;20544;-70
2023/07/11 01:52:30;;;;;;;5.95;3.03;;;;;;;-144.47;72.79;52597.91;5029020;28;20029;-69
2023/07/11 01:54:56;;;;;;;8.05;3.13;;;;;;;-144.47;72.45;52582.00;5027333;28;20025;-70
2023/07/11 01:57:21;;;;;;;6.00;2.90;;;;;;;-144.47;72.80;52582.00;5029127;28;20043;-67
2023/07/11 01:59:46;;;;;;;6.13;3.08;;;;;;;-144.47;73.22;52591.94;5029074;28;20018;-70
2023/07/11 02:02:12;;;;;;;7.82;3.20;;;;;;;-144.47;72.67;52578.03;5028869;28;20100;-69
2023/07/11 02:04:38;;;;;;;14.40;3.25;;;;;;;-144.47;72.50;52585.97;5028459;28;20083;-70
2023/07/11 02:07:05;;;;;;;8.63;3.60;;;;;;;-144.47;72.92;52593.94;5029043;28;20124;-71
2023/07/11 02:09:31;;;;;;;10.07;3.55;;;;;;;-144.47;73.12;52597.91;5028701;28;20029;-71
2023/07/11 02:11:57;;;;;;;6.97;3.40;;;;;;;-144.47;72.84;52597.91;5029305;28;20025;-70
2023/07/11 02:14:31;;;;;;;7.10;3.17;;;;;;;-144.47;73.22;52574.06;5039301;22;20046;-92
2023/07/11 02:17:14;;;;;;;;;;;;;;;;;;;;;
2023/07/11 02:19:48;;;;;;;7.18;3.55;;;;;;;-144.47;73.15;52607.84;5035665;28;20022;-92
2023/07/11 02:22:23;;;;;;;11.90;4.05;;;;;;;-144.47;73.41;52625.72;5022110;28;20021;-92
2023/07/11 02:25:04;;;;;;;9.35;3.95;;;;;;;-144.47;73.75;52570.09;5034839;28;20052;-90
2023/07/11 02:27:30;;;;;;;10.02;4.38;;;;;;;-144.47;74.16;52591.94;5018192;28;20064;-92
2023/07/11 02:30:01;;;;;;;10.77;4.10;;;;;;;-144.47;74.27;52593.94;5039617;28;20030;-91
2023/07/11 02:32:32;;;;;;;12.55;4.47;;;;;;;-144.47;75.16;52584.00;5017175;28;20029;-93
2023/07/11 02:35:00;;;;;;;7.82;3.75;;;;;;;-144.47;75.19;52611.81;5021283;28;20029;-92
2023/07/11 02:37:33;;;;;;;6.38;3.35;;;;;;;-144.47;75.57;52587.97;4999111;28;20083;-90
2023/07/11 02:40:02;;;;;;;6.18;3.53;;;;;;;-144.47;75.80;52574.06;5015662;28;20026;-92
2023/07/11 02:42:47;;;;;;;;;;;;;;;;;;;;;
2023/07/11 02:45:26;;;;;;;;;;;;;;;;;;;;;
2023/07/11 02:48:50;;;;;;;;;;;;;;;;;;;;;
2023/07/11 02:55:05;;;;;;;9.32;3.53;;;;;;;-144.47;77.49;52587.97;5015424;28;20061;-92
2023/07/11 02:57:42;;;;;;;13.50;4.10;;;;;;;-144.47;77.55;52578.03;5014673;28;20320;-93
2023/07/11 03:00:13;;;;;;;9.75;3.95;;;;;;;-144.47;77.98;52607.84;5019196;28;20195;-93
2023/07/11 03:02:53;;;;;;;13.27;3.97;;;;;;;-144.47;78.53;52605.84;4997634;28;20030;-92
2023/07/11 03:05:19;;;;;;;11.82;3.90;;;;;;;-144.47;78.96;52605.84;5014187;28;20106;-92
2023/07/11 03:07:48;;;;;;;10.23;4.30;;;;;;;-144.47;79.53;52595.91;4996763;28;20030;-93
2023/07/11 03:10:23;;;;;;;23.55;5.55;;;;;;;-144.47;80.40;52597.91;4997014;28;20087;-92
2023/07/11 03:12:52;;;;;;;11.95;4.10;;;;;;;-144.47;80.80;52597.91;5007083;28;20108;-90
2023/07/11 03:15:28;;;;;;;10.00;4.10;;;;;;;-144.47;80.87;52619.75;5026096;28;20047;-90
2023/07/11 03:17:54;;;;;;;8.50;3.50;;;;;;;-144.47;81.26;52609.81;5016535;28;20080;-91
2023/07/11 03:20:20;;;;;;;10.45;3.78;;;;;;;-144.47;81.42;52585.97;5017052;28;20022;-92
2023/07/11 03:22:56;;;;;;;7.75;3.47;;;;;;;-144.47;81.91;52572.09;5015588;28;20068;-93
2023/07/11 03:25:50;;;;;;;7.75;4.68;;;;;;;-144.47;82.01;52576.06;5032610;28;20030;-93
2023/07/11 03:28:31;;;;;;;;;;;;;;;;;;;;;
2023/07/11 03:31:00;;;;;;;10.35;4.95;;;;;;;-144.47;82.59;52607.84;5038545;28;20121;-93
2023/07/11 03:33:26;;;;;;;10.15;4.25;;;;;;;-144.47;82.58;52587.97;5040487;28;20070;-91
2023/07/11 03:35:57;;;;;;;11.48;4.40;;;;;;;-144.47;83.33;52613.78;5015032;28;20085;-88
2023/07/11 03:38:28;;;;;;;11.23;4.88;;;;;;;-144.47;83.88;52599.88;5032004;28;20018;-90
2023/07/11 03:41:04;;;;;;;14.93;4.22;;;;;;;-144.47;84.44;52605.84;4999399;28;20026;-91
2023/07/11 03:43:37;;;;;;;9.10;4.15;;;;;;;-144.47;84.91;52589.97;5019022;28;20029;-91
2023/07/11 03:46:02;;;;;;;10.48;4.28;;;;;;;-144.47;85.52;52611.81;5024430;28;20455;-92
2023/07/11 03:48:33;;;;;;;7.68;4.00;;;;;;;-144.47;86.42;52601.88;4996855;28;20037;-92
2023/07/11 03:51:25;;;;;;;7.75;4.18;;;;;;;-144.47;86.87;52582.00;5013755;28;20026;-92
2023/07/11 03:53:53;;;;;;;15.43;4.43;;;;;;;-144.47;87.08;52589.97;5029681;28;20026;-92
2023/07/11 03:56:40;;;;;;;14.48;4.70;;;;;;;-144.47;86.90;52597.91;5016302;28;20037;-90
2023/07/11 03:59:12;;;;;;;9.50;4.70;;;;;;;-144.47;87.07;52591.94;5031110;28;20037;-92
2023/07/11 04:01:42;;;;;;;9.57;4.30;;;;;;;-144.47;87.14;52605.84;5013944;28;20298;-91
2023/07/11 04:04:10;;;;;;;12.52;4.18;;;;;;;-144.47;87.62;52584.00;5032212;28;20030;-92
2023/07/11 04:06:47;;;;;;;8.67;3.67;;;;;;;-144.47;88.42;52613.78;5014296;28;20033;-91
2023/07/11 04:09:19;;;;;;;14.05;5.13;;;;;;;-144.47;88.71;52582.00;5008048;28;20100;-90
2023/07/11 04:11:54;;;;;;;14.10;5.28;;;;;;;-144.47;89.46;52609.81;5016179;28;20021;-91
2023/07/11 04:14:22;;;;;;;14.80;4.65;;;;;;;-144.47;89.80;52607.84;5024664;28;20022;-90
2023/07/11 04:17:27;;;;;;;18.38;4.07;;;;;;;-144.47;89.64;52617.75;4986991;28;20066;-90
2023/07/11 04:20:20;;;;;;;;;;;;;;;;;;;;;
2023/07/11 04:23:24;;;;;;;7.80;3.75;;;;;;;-144.47;89.04;52623.72;5020170;28;20104;-92
2023/07/11 04:29:32;;;;;;;10.30;4.97;;;;;;;-144.47;89.00;52623.72;4989307;28;20081;-87
2023/07/11 04:32:08;;;;;;;9.57;4.70;;;;;;;-144.47;88.56;52582.00;5020857;28;20022;-88
2023/07/11 04:34:33;;;;;;;10.88;4.18;;;;;;;-144.47;88.56;52595.91;5033532;28;20040;-88
2023/07/11 04:36:59;;;;;;;9.15;4.15;;;;;;;-144.47;88.51;52609.81;5029250;23;20072;-66
2023/07/11 04:39:24;;;;;;;17.60;4.78;;;;;;;-144.47;88.39;52597.91;5036982;28;20143;-68
2023/07/11 04:41:49;;;;;;;20.52;5.45;;;;;;;-144.47;88.68;52615.78;5041064;28;20515;-68
2023/07/11 04:44:15;;;;;;;17.67;4.40;;;;;;;-144.47;89.05;52623.72;5031489;28;20025;-70
2023/07/11 04:46:41;;;;;;;13.32;4.47;;;;;;;-144.47;89.00;52619.75;5031736;28;20037;-70
2023/07/11 04:49:06;;;;;;;14.77;5.05;;;;;;;-144.47;88.89;52599.88;5031090;28;20082;-69
2023/07/11 04:51:31;;;;;;;13.02;5.00;;;;;;;-144.47;88.46;52595.91;5032174;28;20159;-67
2023/07/11 04:53:57;;;;;;;20.25;4.60;;;;;;;-144.47;88.69;52595.91;5030703;28;20030;-68
2023/07/11 04:56:22;;;;;;;18.67;5.38;;;;;;;-144.47;88.99;52609.81;5031259;28;20492;-68
2023/07/11 04:58:48;;;;;;;15.85;4.40;;;;;;;-144.47;88.86;52607.84;5030889;28;20026;-65
2023/07/11 05:01:16;;;;;;;30.45;8.68;;;;;;;-144.47;88.19;52597.91;5025343;28;20427;-67
2023/07/11 05:03:41;;;;;;;13.15;4.68;;;;;;;-144.47;86.96;52597.91;5028101;28;20025;-67
2023/07/11 05:06:08;;;;;;;18.70;5.13;;;;;;;-144.47;86.29;52611.81;5031062;28;20146;-69
2023/07/11 05:08:34;;;;;;;8.35;4.13;;;;;;;-144.47;85.22;52599.88;5029720;28;20041;-71
2023/07/11 05:11:03;;;;;;;9.48;3.95;;;;;;;-144.47;84.65;52629.69;5029421;28;20029;-67
2023/07/11 05:13:30;;;;;;;13.95;4.47;;;;;;;-144.47;84.29;52609.81;5026696;28;20526;-70
2023/07/11 05:16:02;;;;;;;7.65;4.10;;;;;;;-144.47;82.87;52589.97;5027209;28;20106;-66
2023/07/11 05:18:27;;;;;;;10.73;4.35;;;;;;;-144.47;82.23;52599.88;5022685;28;20407;-69
2023/07/11 05:20:56;;;;;;;15.00;4.10;;;;;;;-144.47;81.49;52589.97;5031155;28;20040;-67
2023/07/11 05:23:28;;;;;;;15.98;4.68;;;;;;;-144.47;81.23;52593.94;5030920;28;20399;-66
2023/07/11 05:25:54;;;;;;;16.55;4.20;;;;;;;-144.47;81.58;52621.72;5024236;28;20117;-67
2023/07/11 05:28:21;;;;;;;10.60;4.22;;;;;;;-144.47;81.36;52585.97;5012454;28;20104;-68
2023/07/11 05:30:47;;;;;;;10.05;4.15;;;;;;;-144.47;81.21;52607.84;5029125;28;20029;-67
2023/07/11 05:33:13;;;;;;;11.30;3.92;;;;;;;-144.47;81.08;52617.75;5024482;28;20128;-67
2023/07/11 05:35:46;;;;;;;17.08;4.90;;;;;;;-144.47;80.71;52611.81;5022772;28;20604;-66
2023/07/11 05:38:14;;;;;;;15.05;4.80;;;;;;;-144.47;79.55;52617.75;5031722;28;20045;-68
2023/07/11 05:40:43;;;;;;;22.67;5.10;;;;;;;-144.47;79.55;52621.72;5024925;28;20487;-66
2023/07/11 05:43:08;;;;;;;10.60;4.13;;;;;;;-144.47;78.77;52601.88;5011971;28;20037;-68
2023/07/11 05:45:34;;;;;;;8.88;4.63;;;;;;;-144.47;78.18;52597.91;5029556;28;20030;-66
2023/07/11 05:47:59;;;;;;;13.48;4.47;;;;;;;-144.47;77.50;52623.72;5031438;28;20029;-69
2023/07/11 05:50:26;;;;;;;11.43;4.45;;;;;;;-144.47;76.33;52593.94;5023952;28;20099;-68
2023/07/11 05:52:52;;;;;;;13.10;4.57;;;;;;;-144.47;76.01;52591.94;5030112;28;20112;-66
2023/07/11 05:55:17;;;;;;;12.63;4.35;;;;;;;-144.47;75.55;52605.84;5011538;28;20144;-68
2023/07/11 05:57:42;;;;;;;8.45;4.32;;;;;;;-144.47;75.26;52629.69;5030874;28;20037;-72
2023/07/11 06:00:09;;;;;;;14.52;4.32;;;;;;;-144.47;74.56;52613.78;5029725;28;20135;-68
2023/07/11 06:02:35;;;;;;;11.02;3.95;;;;;;;-144.47;74.15;52599.88;5030936;28;20047;-67
2023/07/11 06:05:01;;;;;;;9.95;3.92;;;;;;;-144.47;72.97;52613.78;5029272;28;20026;-68
2023/07/11 06:07:28;;;;;;;11.38;3.20;;;;;;;-144.47;72.38;52639.59;5025534;28;20125;-68
2023/07/11 06:09:55;;;;;;;13.38;4.13;;;;;;;-144.47;71.43;52595.91;5029695;28;20033;-67
2023/07/11 06:12:21;;;;;;;10.27;4.22;;;;;;;-144.47;71.41;52607.84;5027618;28;20017;-69
2023/07/11 06:14:51;;;;;;;12.85;3.72;;;;;;;-144.47;71.60;52619.75;5013593;28;20048;-70
2023/07/11 06:17:16;;;;;;;9.60;4.07;;;;;;;-144.47;71.75;52589.97;5030689;28;20025;-68
2023/07/11 06:19:42;;;;;;;11.82;3.58;;;;;;;-144.47;70.58;52599.88;5031232;28;20383;-69
2023/07/11 06:22:07;;;;;;;7.57;3.30;;;;;;;-144.47;69.02;52637.63;5030590;28;20032;-69
2023/07/11 06:24:33;;;;;;;8.63;3.38;;;;;;;-144.47;67.51;52625.72;5027400;28;20057;-68
2023/07/11 06:26:59;;;;;;;7.20;3.10;;;;;;;-144.47;67.21;52589.97;5026131;28;20036;-71
2023/07/11 06:29:28;;;;;;;11.00;3.20;;;;;;;-144.47;65.77;52597.91;5030770;28;20033;-66
2023/07/11 06:31:53;;;;;;;6.07;2.95;;;;;;;-144.47;65.71;52613.78;5030300;28;20026;-68
2023/07/11 06:34:18;;;;;;;7.93;3.45;;;;;;;-144.47;65.14;52631.66;5030107;28;20028;-70
2023/07/11 06:36:44;;;;;;;10.63;3.40;;;;;;;-144.47;65.32;52611.81;5030388;28;20067;-70
2023/07/11 06:39:10;;;;;;;12.95;3.05;;;;;;;-144.47;64.94;52631.66;5030493;28;20025;-68
2023/07/11 06:41:35;;;;;;;7.03;2.47;;;;;;;-144.47;63.53;52589.97;5031183;28;20017;-69
2023/07/11 06:44:00;;;;;;;11.73;3.72;;;;;;;-144.47;63.25;52609.81;5028895;28;20029;-68
2023/07/11 06:46:26;;;;;;;13.27;3.20;;;;;;;-144.47;62.90;52605.84;5031340;28;20033;-70
2023/07/11 06:48:59;;;;;;;6.40;2.92;;;;;;;-144.47;62.51;52609.81;5031129;28;20040;-70
2023/07/11 06:51:25;;;;;;;6.22;3.50;;;;;;;-144.47;61.75;52619.75;5029412;28;20037;-68
2023/07/11 06:53:50;;;;;;;9.30;3.10;;;;;;;-144.47;61.32;52617.75;5028526;28;20585;-67
2023/07/11 06:56:16;;;;;;;8.05;2.80;;;;;;;-144.47;60.34;52609.81;5011565;28;20510;-69
2023/07/11 06:58:41;;;;;;;7.47;3.10;;;;;;;-144.47;60.02;52627.69;5029508;28;20450;-67
2023/07/11 07:01:07;;;;;;;10.75;3.05;;;;;;;-144.47;59.75;52621.72;5028922;28;20037;-66
2023/07/11 07:03:33;;;;;;;10.32;3.00;;;;;;;-144.47;59.34;52597.91;5027919;28;20108;-68
2023/07/11 07:06:10;;;;;;;8.30;3.28;;;;;;;-144.47;59.18;52635.63;5023616;28;20022;-68
2023/07/11 07:08:35;;;;;;;5.53;2.53;;;;;;;-144.47;57.58;52641.59;5027399;28;20045;-67
2023/07/11 07:11:01;;;;;;;10.80;2.85;;;;;;;-144.47;57.40;52629.69;5023398;28;20029;-67
2023/07/11 07:13:26;;;;;;;7.93;2.35;;;;;;;-144.47;57.48;52637.63;5028763;28;20103;-66
2023/07/11 07:15:56;;;;;;;7.13;2.70;;;;;;;-144.47;55.25;52603.84;5029478;28;20021;-67
2023/07/11 07:18:22;;;;;;;8.50;3.92;;;;;;;-144.47;55.43;52595.91;5040661;28;20033;-67
2023/07/11 07:20:51;;;;;;;10.98;2.47;;;;;;;-144.47;55.09;52619.75;5033588;28;20554;-63
2023/07/11 07:23:17;;;;;;;11.38;2.85;;;;;;;-144.47;55.68;52655.50;5030374;28;20032;-66
2023/07/11 07:25:50;;;;;;;8.05;2.80;;;;;;;-144.47;55.87;52621.72;5028077;28;20037;-66
2023/07/11 07:28:15;;;;;;;4.88;3.08;;;;;;;-144.47;55.63;52643.56;5026702;28;20133;-67
2023/07/11 07:30:49;;;;;;;7.30;3.22;;;;;;;-144.47;55.57;52637.63;5026471;28;20567;-66
2023/07/11 07:33:15;;;;;;;9.02;3.67;;;;;;;-144.47;55.27;52641.59;5027466;28;20040;-68
2023/07/11 07:35:42;;;;;;;7.45;3.03;;;;;;;-144.47;55.05;52645.56;5012036;28;20030;-66
2023/07/11 07:38:07;;;;;;;10.80;3.30;;;;;;;-144.47;54.40;52627.69;5013501;28;20491;-67
2023/07/11 07:40:33;;;;;;;8.80;2.70;;;;;;;-144.47;54.11;52645.56;5023459;28;20036;-66
2023/07/11 07:42:58;;;;;;;10.77;3.22;;;;;;;-144.47;53.48;52641.59;5028513;28;20025;-66
2023/07/11 07:45:24;;;;;;;10.02;3.10;;;;;;;-144.47;53.23;52635.63;5015903;28;20089;-69
2023/07/11 07:47:49;;;;;;;11.55;3.03;;;;;;;-144.47;52.27;52633.66;5026959;28;20037;-67
2023/07/11 07:50:15;;;;;;;8.65;2.65;;;;;;;-144.47;52.22;52645.56;5024738;28;20037;-68
2023/07/11 07:52:41;;;;;;;7.60;3.22;;;;;;;-144.47;51.77;52651.53;5021548;28;20038;-68
2023/07/11 07:55:07;;;;;;;7.15;2.30;;;;;;;-144.47;50.11;52655.50;5016979;28;20048;-67
2023/07/11 07:57:32;;;;;;;10.15;2.70;;;;;;;-144.47;50.23;52627.69;5003603;28;20026;-66
2023/07/11 07:59:58;;;;;;;7.75;2.22;;;;;;;-144.47;50.10;52671.38;5016823;28;20498;-66
2023/07/11 08:02:23;;;;;;;10.27;2.95;;;;;;;-144.47;49.18;52611.81;5022948;28;20037;-66
2023/07/11 08:04:48;;;;;;;5.10;2.10;;;;;;;-144.47;48.80;52665.44;4995642;28;20034;-66
2023/07/11 08:07:15;;;;;;;12.52;2.97;;;;;;;-144.47;48.04;52661.44;5017700;28;20057;-67
2023/07/11 08:09:41;;;;;;;10.60;2.42;;;;;;;-144.47;47.25;52649.53;5008558;28;20026;-67
2023/07/11 08:12:08;;;;;;;11.50;2.50;;;;;;;-144.47;47.34;52613.78;5026079;28;20029;-67
2023/07/11 08:14:38;;;;;;;5.50;2.10;;;;;;;-144.47;45.88;52655.50;5022723;28;20395;-66
2023/07/11 08:17:05;;;;;;;13.63;2.88;;;;;;;-144.47;45.30;52649.53;5067910;23;20052;-74
2023/07/11 08:19:31;;;;;;;13.57;2.15;;;;;;;-144.47;45.06;52669.41;5064126;28;20033;-73
2023/07/11 08:21:56;;;;;;;5.50;1.70;;;;;;;-144.47;45.05;52669.41;5065475;28;20033;-74
2023/07/11 08:24:22;;;;;;;10.98;2.85;;;;;;;-144.47;44.86;52687.28;5063839;28;20087;-73
2023/07/11 08:26:47;;;;;;;4.30;2.25;;;;;;;-144.47;44.48;52659.47;5049912;28;20029;-72
2023/07/11 08:29:13;;;;;;;7.95;2.17;;;;;;;-144.47;44.31;52655.50;5045107;28;20033;-73
2023/07/11 08:31:39;;;;;;;5.93;2.13;;;;;;;-144.47;44.45;52669.41;5045291;28;20048;-74
2023/07/11 08:34:04;;;;;;;6.78;2.60;;;;;;;-144.47;44.14;52639.59;5046460;28;20059;-74
2023/07/11 08:36:30;;;;;;;7.40;2.42;;;;;;;-144.47;44.27;52677.34;5043487;28;20028;-73
2023/07/11 08:38:55;;;;;;;4.60;2.30;;;;;;;-144.47;44.26;52679.31;5044978;28;20052;-74
2023/07/11 08:41:20;;;;;;;7.22;2.15;;;;;;;-144.47;44.15;52669.41;5045838;28;20021;-71
2023/07/11 08:43:48;;;;;;;9.75;2.15;;;;;;;-144.47;44.08;52663.44;5044541;28;20025;-71
2023/07/11 08:46:17;;;;;;;4.47;2.20;;;;;;;-144.47;43.94;52673.38;5044313;28;20037;-73
2023/07/11 08:48:49;;;;;;;8.07;2.58;;;;;;;-144.47;43.97;52685.28;5045175;28;20074;-73
2023/07/11 08:51:25;;;;;;;7.55;2.40;;;;;;;-144.47;43.32;52695.22;5045224;28;20148;-74
2023/07/11 08:54:05;;;;;;;4.60;2.33;;;;;;;-144.47;43.41;52683.31;5034846;28;20761;-73
2023/07/11 08:56:38;;;;;;;6.35;2.38;;;;;;;-144.47;43.29;52687.28;5043071;28;20025;-72
2023/07/11 08:59:15;;;;;;;8.85;2.65;;;;;;;-144.47;43.34;52681.31;5044844;28;20087;-72
2023/07/11 09:01:48;;;;;;;4.17;1.93;;;;;;;-144.47;43.15;52679.31;5044304;28;20056;-71
2023/07/11 09:04:18;;;;;;;6.40;2.35;;;;;;;-144.47;42.87;52669.41;5046306;28;20029;-70
2023/07/11 09:06:54;;;;;;;4.43;2.15;;;;;;;-144.47;42.77;52695.22;5043404;28;20126;-71
2023/07/11 09:09:19;;;;;;;9.57;2.58;;;;;;;-144.47;42.64;52715.06;5042680;28;20130;-71
2023/07/11 09:11:54;;;;;;;8.07;2.33;;;;;;;-144.47;42.28;52703.16;5044840;28;20620;-68
2023/07/11 09:14:49;;;;;;;7.18;2.17;;;;;;;-144.47;42.06;52701.19;5041720;28;20020;-71
2023/07/11 09:17:17;;;;;;;4.47;2.13;;;;;;;-144.47;41.99;52697.19;5042058;28;20509;-69
2023/07/11 09:19:55;;;;;;;7.80;2.30;;;;;;;-144.47;41.60;52699.19;5045682;28;20136;-73
2023/07/11 09:22:41;;;;;;;10.30;2.30;;;;;;;-144.47;41.48;52695.22;5043718;28;20039;-72
2023/07/11 09:25:23;;;;;;;5.20;1.77;;;;;;;-144.47;41.06;52697.19;5043333;28;20033;-71
2023/07/11 09:27:53;;;;;;;9.27;2.60;;;;;;;-144.47;41.18;52715.06;5043655;28;20021;-69
2023/07/11 09:30:40;;;;;;;14.68;4.95;;;;;;;-144.47;40.53;52689.25;5045873;28;20040;-69
2023/07/11 09:33:30;;;;;;;5.72;2.47;;;;;;;-144.47;41.52;52715.06;5045048;28;20120;-68
2023/07/11 09:35:56;;;;;;;6.47;2.22;;;;;;;-144.47;40.44;52711.09;5041844;28;20155;-69
2023/07/11 09:38:31;;;;;;;6.47;2.25;;;;;;;-144.47;39.39;52728.97;5046819;28;20505;-71
2023/07/11 09:40:59;;;;;;;4.40;1.60;;;;;;;-144.47;39.15;52683.31;5044171;28;20036;-68
2023/07/11 09:43:24;;;;;;;7.47;2.53;;;;;;;-144.47;39.58;52711.09;5043735;28;20060;-69
2023/07/11 09:45:50;;;;;;;7.88;2.38;;;;;;;-144.47;39.44;52732.94;5041898;28;20125;-68
2023/07/11 09:48:27;;;;;;;5.28;2.05;;;;;;;-144.47;39.46;52715.06;5043951;28;20560;-70
2023/07/11 09:51:26;;;;;;;7.70;2.33;;;;;;;-144.47;39.62;52719.06;5031139;28;20112;-68
2023/07/11 09:53:55;;;;;;;5.47;2.28;;;;;;;-144.47;39.41;52685.28;5042110;28;20033;-69
2023/07/11 09:56:23;;;;;;;8.63;2.47;;;;;;;-144.47;39.34;52707.13;5041814;28;20025;-68
2023/07/11 09:58:50;;;;;;;6.10;2.22;;;;;;;-144.47;39.56;52723.03;5041457;28;20045;-70
2023/07/11 10:01:21;;;;;;;6.88;2.50;;;;;;;-144.47;39.15;52715.06;5043190;28;20040;-68
2023/07/11 10:03:47;;;;;;;7.30;2.15;;;;;;;-144.47;38.79;52719.06;5042448;28;20029;-71
2023/07/11 10:06:46;;;;;;;5.25;2.20;;;;;;;-144.47;38.69;52728.97;5041876;28;20051;-71
2023/07/11 10:09:14;;;;;;;7.85;2.40;;;;;;;-144.47;38.90;52715.06;5043794;28;20043;-68
2023/07/11 10:11:39;;;;;;;23.45;3.28;;;;;;;-144.47;38.93;52736.94;5043601;28;20090;-70
2023/07/11 10:14:05;;;;;;;7.43;2.30;;;;;;;-144.47;38.65;52725.00;5040091;28;20036;-70
2023/07/11 10:16:33;;;;;;;8.65;2.20;;;;;;;-144.47;38.20;52752.81;5042980;28;20037;-68
2023/07/11 10:18:59;;;;;;;4.88;2.35;;;;;;;-144.47;38.19;52734.94;5043610;28;20078;-71
2023/07/11 10:21:31;;;;;;;6.00;2.47;;;;;;;-144.47;37.78;52752.81;5033331;28;20017;-72
2023/07/11 10:23:57;;;;;;;7.78;2.33;;;;;;;-144.47;37.67;52728.97;5042461;28;20040;-68
2023/07/11 10:26:26;;;;;;;7.57;2.30;;;;;;;-144.47;37.53;52762.75;5041188;28;20021;-71
2023/07/11 10:28:58;;;;;;;5.82;2.58;;;;;;;-144.47;37.59;52730.97;5030243;28;20437;-72
2023/07/11 10:31:29;;;;;;;6.28;2.35;;;;;;;-144.47;37.22;52744.88;5043194;28;20029;-71
2023/07/11 10:34:05;;;;;;;8.55;2.63;;;;;;;-144.47;37.22;52776.66;5040330;28;20494;-68
2023/07/11 10:36:46;;;;;;;13.18;2.90;;;;;;;-144.47;37.45;52760.75;5042334;28;20028;-68
2023/07/11 10:39:18;;;;;;;5.60;2.90;;;;;;;-144.47;37.05;52762.75;5034378;28;20102;-69
2023/07/11 10:41:57;;;;;;;9.63;2.83;;;;;;;-144.47;37.08;52748.84;5030791;28;20057;-71
2023/07/11 10:44:29;;;;;;;6.03;2.88;;;;;;;-144.47;37.18;52758.78;5043840;28;20395;-70
2023/07/11 10:46:56;;;;;;;9.23;3.83;;;;;;;-144.47;37.05;52772.69;5041769;28;20122;-73
2023/07/11 10:49:29;;;;;;;7.60;2.90;;;;;;;-144.47;36.84;52774.66;5033731;28;20041;-68
2023/07/11 10:52:04;;;;;;;8.65;2.70;;;;;;;-144.47;36.55;52780.63;5041364;28;20612;-70
2023/07/11 10:54:48;;;;;;;5.68;2.70;;;;;;;-144.47;36.38;52784.59;5041824;28;20049;-70
2023/07/11 10:57:33;;;;;;;6.85;2.83;;;;;;;-144.47;36.16;52790.56;5041530;28;20044;-71
2023/07/11 10:59:59;;;;;;;10.23;2.58;;;;;;;-144.47;36.28;52772.69;5040678;28;20025;-72
2023/07/11 11:02:51;;;;;;;8.45;2.92;;;;;;;-144.47;36.28;52776.66;5043970;28;20036;-72
2023/07/11 11:05:36;;;;;;;6.60;2.88;;;;;;;-144.47;36.32;52820.34;5040338;28;20032;-72
2023/07/11 11:08:11;;;;;;;10.70;3.28;;;;;;;-144.47;36.29;52792.53;5041473;28;20395;-67
2023/07/11 11:10:50;;;;;;;10.93;3.30;;;;;;;-144.47;35.78;52742.88;5044578;28;20025;-66
2023/07/11 11:13:26;;;;;;;9.07;3.22;;;;;;;-144.47;35.22;52788.56;5051672;28;20121;-70
2023/07/11 11:16:06;;;;;;;12.50;3.10;;;;;;;-144.47;35.14;52812.41;5041355;28;20040;-72
2023/07/11 11:19:04;;;;;;;8.40;3.17;;;;;;;-144.47;34.79;52828.28;5064306;28;20028;-67
2023/07/11 11:21:43;;;;;;;8.60;3.20;;;;;;;-144.47;34.47;52828.28;5068592;28;20138;-71
2023/07/11 11:24:23;;;;;;;8.65;3.17;;;;;;;-144.47;34.42;52846.16;5057650;28;20028;-71
2023/07/11 11:27:06;;;;;;;8.18;3.17;;;;;;;-144.47;34.35;52860.06;5067606;28;20047;-70
2023/07/11 11:29:43;;;;;;;10.02;2.90;;;;;;;-144.47;34.54;52834.25;5066555;28;20085;-67
2023/07/11 11:32:25;;;;;;;5.53;3.13;;;;;;;-144.47;34.02;52828.28;5068347;28;20020;-70
2023/07/11 11:35:05;;;;;;;25.25;5.43;;;;;;;-144.47;34.24;52850.13;5066420;28;20036;-69
2023/07/11 11:37:49;;;;;;;8.63;3.30;;;;;;;-144.47;34.14;52848.16;5055571;28;20021;-71
2023/07/11 11:40:16;;;;;;;11.75;3.83;;;;;;;-144.47;34.09;52858.06;5049229;28;20106;-71
2023/07/11 11:42:44;;;;;;;6.60;3.13;;;;;;;-144.47;34.05;52868.00;5067853;28;20056;-70
2023/07/11 11:45:15;;;;;;;9.50;3.42;;;;;;;-144.47;33.64;52868.00;5066745;28;20024;-69